Terminal Aerodrome Forecast
Issued by NWS

Home | Current Version | Previous Version | Graphics & Text | Print | Product List | Glossary On
Versions: 1 2 3 4 5 6 7 8 9 10 11 12 13 14 15 16 17 18 19 20 21
000
FTUS43 KMPX 242000 AAA
TAFAXN
TAF AMD
KAXN 242036Z 2421/2518 33020G26KT P6SM -SN OVC025
     FM242300 32014G24KT P6SM FEW020
     FM250400 31010KT P6SM SCT100
     FM251400 26005KT P6SM OVC040=

USA.gov is the U.S. government's official web portal to all federal, state and local government web resources and services.